Bookmark and Share
Track history (hours):
 

Arcadia Highway

Last reported at 2014-Apr-18 22:33 UTC. Time now 2014-Apr-20 00:50 UTC.
Position N 34°44' E 140°18'.

Length 179 m; draft 7 m.

Type: Cargo ship. MMSI: 354342000.

NotesDate/timePositionNaut miles runAvg speedWind from/ knotsBaromVisibWave heightAir tempDewpointWater temp
2014-Apr-18 22:33N 34°44' E 140°18'1813.2
2014-Apr-18 21:11N 34°40' E 139°56'914.0
2014-Apr-18 20:32N 34°38' E 139°45'  
2014-Apr-16 12:33N 34°37' E 139°29'1717.4
2014-Apr-16 11:33N 34°53' E 139°39'1817.6
2014-Apr-16 10:33N 35°09' E 139°45'1110.5
2014-Apr-16 09:33N 35°20' E 139°42'8 8.4
2014-Apr-16 08:33N 35°28' E 139°41'0 0.0
2014-Apr-16 07:32N 35°28' E 139°41'0 0.1
2014-Apr-16 06:33N 35°28' E 139°41'0 0.0
2014-Apr-16 05:34N 35°28' E 139°41'0 0.1
2014-Apr-16 04:33N 35°28' E 139°41'0 0.0
2014-Apr-16 03:33N 35°28' E 139°41'0 0.0
2014-Apr-16 02:34N 35°28' E 139°41'0 0.0
2014-Apr-16 01:32N 35°28' E 139°41'0 0.0
2014-Apr-16 00:33N 35°28' E 139°41'0 0.0
2014-Apr-15 23:32N 35°28' E 139°41'0 0.1
2014-Apr-15 22:34N 35°28' E 139°41'4 3.5
2014-Apr-15 21:32N 35°26' E 139°44'1 1.5
2014-Apr-15 20:32N 35°25' E 139°42'0 0.0
2014-Apr-15 19:29N 35°25' E 139°42'0 0.0
2014-Apr-15 18:26N 35°25' E 139°42'0 0.0
2014-Apr-15 17:32N 35°25' E 139°42'0 0.1
2014-Apr-15 16:32N 35°25' E 139°42'0 0.1
2014-Apr-15 15:32N 35°25' E 139°42'0 0.0
2014-Apr-15 14:32N 35°25' E 139°42'0 0.0
2014-Apr-15 12:33N 35°25' E 139°42'0 0.1
2014-Apr-15 11:32N 35°25' E 139°42'0 0.0
2014-Apr-15 09:30N 35°25' E 139°42'0 0.0
2014-Apr-15 07:33N 35°25' E 139°42'0 0.0
2014-Apr-15 06:33N 35°25' E 139°42'0 0.0
2014-Apr-15 03:32N 35°25' E 139°42'0 0.0
2014-Apr-15 02:32N 35°25' E 139°42'0 0.2
2014-Apr-15 01:32N 35°25' E 139°42'0 0.0
2014-Apr-14 23:32N 35°25' E 139°42'0 0.1
2014-Apr-14 22:32N 35°25' E 139°42'0 0.0
2014-Apr-14 20:32N 35°25' E 139°42'0 0.0
2014-Apr-14 19:32N 35°25' E 139°42'0 0.0
2014-Apr-14 18:32N 35°25' E 139°42'0 0.0
2014-Apr-14 17:32N 35°25' E 139°42'0 0.0
2014-Apr-14 16:32N 35°25' E 139°42'0 0.0
2014-Apr-14 15:32N 35°25' E 139°42'0 0.0
2014-Apr-14 14:32N 35°25' E 139°42'0 0.0
2014-Apr-14 13:32N 35°25' E 139°42'0 0.0
2014-Apr-14 11:32N 35°25' E 139°42'0 0.1
2014-Apr-14 10:32N 35°25' E 139°42'0 0.1
2014-Apr-14 09:32N 35°25' E 139°42'0 0.0
2014-Apr-14 08:32N 35°25' E 139°42'0 0.0
2014-Apr-14 07:32N 35°25' E 139°42'0 0.1
2014-Apr-14 06:32N 35°25' E 139°42'0 0.0
2014-Apr-14 05:32N 35°25' E 139°42'30 4.4
2014-Apr-13 22:33N 34°55' E 139°41'1514.9
2014-Apr-13 21:32N 34°40' E 139°36'  

Dump ship's entire track history

sailing weather and tide predictions

Arcadia Highway — 3FQT4 — position and weather